createdAt,value
2018-07-08T00:00:30.894Z,4.50
2018-07-08T00:02:59.217Z,4.60
2018-07-08T00:05:27.314Z,4.73
2018-07-08T00:07:55.976Z,5.03
2018-07-08T00:10:24.322Z,4.80
2018-07-08T00:12:52.686Z,4.87
2018-07-08T00:15:20.983Z,5.10
2018-07-08T00:17:49.345Z,5.60
2018-07-08T00:20:17.754Z,5.63
2018-07-08T00:22:46.135Z,5.83
2018-07-08T00:25:14.430Z,5.40
2018-07-08T00:27:42.768Z,5.27
2018-07-08T00:30:11.106Z,5.00
2018-07-08T00:32:39.410Z,6.00
2018-07-08T00:35:07.768Z,5.77
2018-07-08T00:37:36.186Z,5.73
2018-07-08T00:40:05.162Z,5.70
2018-07-08T00:42:33.524Z,5.77
2018-07-08T00:45:01.823Z,5.23
2018-07-08T00:47:30.174Z,5.60
2018-07-08T00:49:58.510Z,5.27
2018-07-08T00:52:26.842Z,5.80
2018-07-08T00:54:55.190Z,6.23
2018-07-08T00:57:23.633Z,6.07
2018-07-08T00:59:51.973Z,6.27
2018-07-08T01:02:20.328Z,5.33
2018-07-08T01:04:48.430Z,6.30
2018-07-08T01:07:16.750Z,5.87
2018-07-08T01:09:45.074Z,6.17
2018-07-08T01:12:13.724Z,6.03
2018-07-08T01:14:42.779Z,5.83
2018-07-08T01:17:11.089Z,5.70
2018-07-08T01:19:39.478Z,6.20
2018-07-08T01:22:07.806Z,6.70
2018-07-08T01:24:36.142Z,5.50
2018-07-08T01:27:04.597Z,6.10
2018-07-08T01:29:32.979Z,5.60
2018-07-08T01:32:01.308Z,6.33
2018-07-08T01:34:29.652Z,6.13
2018-07-08T01:36:58.032Z,5.97
2018-07-08T01:39:26.415Z,6.47
2018-07-08T01:41:55.145Z,6.20
2018-07-08T01:44:23.565Z,6.30
2018-07-08T01:46:51.842Z,6.10
2018-07-08T01:49:20.171Z,6.97
2018-07-08T01:51:48.482Z,6.60
2018-07-08T01:54:16.804Z,6.77
2018-07-08T01:56:44.858Z,6.00
2018-07-08T01:59:13.431Z,6.63
2018-07-08T02:01:41.716Z,6.50
2018-07-08T02:04:10.059Z,6.37
2018-07-08T02:06:38.508Z,6.47
2018-07-08T02:09:06.983Z,6.17
2018-07-08T02:11:35.582Z,6.40
2018-07-08T02:14:03.913Z,5.80
2018-07-08T02:16:32.288Z,5.40
2018-07-08T02:19:00.597Z,5.97
2018-07-08T02:21:29.060Z,6.57
2018-07-08T02:23:57.478Z,6.30
2018-07-08T02:26:25.933Z,6.33
2018-07-08T02:28:54.394Z,6.03
2018-07-08T02:31:22.731Z,5.83
2018-07-08T02:33:51.405Z,6.67
2018-07-08T02:36:19.706Z,5.87
2018-07-08T02:38:48.030Z,5.50
2018-07-08T02:41:16.332Z,5.60
2018-07-08T02:43:44.637Z,5.33
2018-07-08T02:46:12.958Z,5.17
2018-07-08T02:48:41.319Z,5.40
2018-07-08T02:51:09.608Z,5.57
2018-07-08T02:53:38.008Z,5.60
2018-07-08T02:56:06.316Z,5.53
2018-07-08T02:58:34.638Z,4.83
2018-07-08T03:01:02.996Z,5.00
2018-07-08T03:03:31.387Z,5.00
2018-07-08T03:05:59.742Z,5.27
2018-07-08T03:08:28.423Z,5.47
2018-07-08T03:10:56.743Z,4.37
2018-07-08T03:13:25.092Z,4.90
2018-07-08T03:15:53.421Z,4.83
2018-07-08T03:18:21.715Z,4.60
2018-07-08T03:20:50.092Z,4.80
2018-07-08T03:23:18.385Z,4.87
2018-07-08T03:25:46.966Z,4.37
2018-07-08T03:28:15.320Z,4.70
2018-07-08T03:30:43.645Z,4.67
2018-07-08T03:33:11.953Z,3.97
2018-07-08T03:35:40.245Z,4.90
2018-07-08T03:38:08.568Z,4.40
2018-07-08T03:40:36.889Z,4.40
2018-07-08T03:43:05.050Z,3.60
2018-07-08T03:45:33.384Z,4.43
2018-07-08T03:48:01.754Z,3.90
2018-07-08T03:50:30.134Z,3.60
2018-07-08T03:52:58.424Z,4.40
2018-07-08T03:55:26.783Z,4.10
2018-07-08T03:57:55.218Z,3.67
2018-07-08T04:00:23.494Z,4.20
2018-07-08T04:02:51.803Z,3.87
2018-07-08T04:05:20.117Z,4.20
2018-07-08T04:07:48.451Z,3.80
2018-07-08T04:10:16.758Z,4.37
2018-07-08T04:12:45.103Z,3.90
2018-07-08T04:15:13.423Z,4.47
2018-07-08T04:17:41.727Z,4.13
2018-07-08T04:20:10.044Z,3.83
2018-07-08T04:22:38.381Z,3.60
2018-07-08T04:25:06.706Z,3.73
2018-07-08T04:27:35.306Z,3.83
2018-07-08T04:30:03.638Z,4.50
2018-07-08T04:32:31.938Z,3.67
2018-07-08T04:35:00.252Z,4.20
2018-07-08T04:37:28.552Z,3.90
2018-07-08T04:39:56.893Z,3.63
2018-07-08T04:42:25.234Z,3.73
2018-07-08T04:44:53.556Z,4.20
2018-07-08T04:47:21.898Z,4.07
2018-07-08T04:49:50.218Z,3.80
2018-07-08T04:52:18.527Z,3.87
2018-07-08T04:54:46.797Z,3.53
2018-07-08T04:57:15.159Z,3.47
2018-07-08T04:59:43.483Z,3.90
2018-07-08T05:02:12.191Z,3.77
2018-07-08T05:04:40.490Z,3.40
2018-07-08T05:07:08.861Z,3.17
2018-07-08T05:09:37.219Z,2.53
2018-07-08T05:12:05.611Z,3.10
2018-07-08T05:14:33.955Z,2.63
2018-07-08T05:17:02.281Z,2.70
2018-07-08T05:19:30.594Z,3.17
2018-07-08T05:21:58.968Z,2.90
2018-07-08T05:24:27.625Z,3.40
2018-07-08T05:26:55.999Z,3.57
2018-07-08T05:29:24.290Z,2.87
2018-07-08T05:31:52.614Z,2.80
2018-07-08T05:34:20.938Z,3.03
2018-07-08T05:36:49.240Z,3.37
2018-07-08T05:39:17.505Z,3.10
2018-07-08T05:41:46.179Z,2.80
2018-07-08T05:44:15.187Z,2.83
2018-07-08T05:46:43.489Z,3.00
2018-07-08T05:49:11.832Z,2.70
2018-07-08T05:51:40.112Z,3.13
2018-07-08T05:54:08.480Z,3.07
2018-07-08T05:56:36.856Z,2.80
2018-07-08T05:59:05.201Z,2.90
2018-07-08T06:01:33.490Z,2.50
2018-07-08T06:04:01.792Z,2.50
2018-07-08T06:06:30.058Z,2.40
2018-07-08T06:08:58.330Z,2.60
2018-07-08T06:11:26.650Z,2.23
2018-07-08T06:13:54.942Z,2.50
2018-07-08T06:16:24.393Z,2.27
2018-07-08T06:18:52.716Z,2.40
2018-07-08T06:21:21.025Z,2.13
2018-07-08T06:23:49.302Z,2.43
2018-07-08T06:26:17.594Z,2.53
2018-07-08T06:28:45.903Z,2.80
2018-07-08T06:31:15.154Z,2.57
2018-07-08T06:33:43.452Z,2.70
2018-07-08T06:36:11.733Z,2.30
2018-07-08T06:38:40.035Z,2.50
2018-07-08T06:41:08.343Z,2.63
2018-07-08T06:43:36.615Z,2.20
2018-07-08T06:46:04.957Z,2.30
2018-07-08T06:48:33.250Z,3.00
2018-07-08T06:51:01.557Z,2.50
2018-07-08T06:53:29.842Z,2.03
2018-07-08T06:55:58.480Z,2.63
2018-07-08T06:58:26.776Z,2.40
2018-07-08T07:00:55.074Z,2.60
2018-07-08T07:03:23.371Z,2.33
2018-07-08T07:05:51.670Z,1.97
2018-07-08T07:08:19.970Z,2.40
2018-07-08T07:10:48.294Z,2.50
2018-07-08T07:13:16.606Z,2.30
2018-07-08T07:15:44.917Z,2.40
2018-07-08T07:18:13.214Z,2.10
2018-07-08T07:20:41.487Z,2.60
2018-07-08T07:23:09.805Z,2.10
2018-07-08T07:25:38.047Z,2.37
2018-07-08T07:28:06.779Z,2.20
2018-07-08T07:30:35.119Z,2.40
2018-07-08T07:33:04.334Z,2.40
2018-07-08T07:35:32.630Z,2.10
2018-07-08T07:38:00.956Z,2.27
2018-07-08T07:40:29.666Z,1.80
2018-07-08T07:43:03.195Z,2.10
2018-07-08T07:45:37.669Z,1.90
2018-07-08T07:48:06.351Z,2.13
2018-07-08T07:50:35.108Z,1.97
2018-07-08T07:53:03.456Z,2.67
2018-07-08T07:55:32.481Z,2.83
2018-07-08T07:58:00.868Z,2.07
2018-07-08T08:00:29.175Z,2.40
2018-07-08T08:02:57.546Z,1.63
2018-07-08T08:05:25.914Z,1.90
2018-07-08T08:07:54.254Z,2.20
2018-07-08T08:10:22.611Z,2.40
2018-07-08T08:12:51.149Z,2.60
2018-07-08T08:15:19.431Z,2.13
2018-07-08T08:17:47.765Z,2.17
2018-07-08T08:20:16.203Z,2.10
2018-07-08T08:22:44.524Z,2.00
2018-07-08T08:25:12.857Z,2.33
2018-07-08T08:27:41.212Z,2.30
2018-07-08T08:30:09.563Z,1.60
2018-07-08T08:32:37.940Z,2.03
2018-07-08T08:35:11.646Z,2.43
2018-07-08T08:37:40.845Z,2.10
2018-07-08T08:40:09.804Z,2.17
2018-07-08T08:42:38.203Z,2.60
2018-07-08T08:45:07.969Z,1.70
2018-07-08T08:47:36.394Z,2.10
2018-07-08T08:50:05.346Z,1.70
2018-07-08T08:52:33.750Z,2.20
2018-07-08T08:55:02.018Z,1.63
2018-07-08T08:57:30.855Z,1.70
2018-07-08T08:59:59.343Z,1.73
2018-07-08T09:02:27.791Z,2.17
2018-07-08T09:04:56.404Z,2.00
2018-07-08T09:07:24.747Z,3.93
2018-07-08T09:09:53.055Z,2.60
2018-07-08T09:12:21.350Z,3.50
2018-07-08T09:14:49.667Z,2.80
2018-07-08T09:17:17.999Z,3.00
2018-07-08T09:19:46.336Z,2.67
2018-07-08T09:22:14.666Z,2.93
2018-07-08T09:24:42.992Z,2.23
2018-07-08T09:27:11.310Z,2.60
2018-07-08T09:29:39.678Z,2.53
2018-07-08T09:32:12.884Z,2.17
2018-07-08T09:34:41.201Z,2.30
2018-07-08T09:37:09.510Z,2.43
2018-07-08T09:39:37.870Z,2.10
2018-07-08T09:42:06.187Z,1.77
2018-07-08T09:44:34.535Z,2.30
2018-07-08T09:47:02.802Z,2.23
2018-07-08T09:49:31.638Z,2.50
2018-07-08T09:52:00.159Z,2.20
2018-07-08T09:54:28.466Z,1.83
2018-07-08T09:56:56.856Z,2.00
2018-07-08T09:59:27.271Z,1.77
2018-07-08T10:01:55.881Z,1.73
2018-07-08T10:04:25.067Z,1.60
2018-07-08T10:06:54.910Z,1.70
2018-07-08T10:09:32.001Z,2.00
2018-07-08T10:12:00.456Z,1.60
2018-07-08T10:14:28.910Z,1.80
2018-07-08T10:16:57.249Z,2.10
2018-07-08T10:19:25.721Z,1.57
2018-07-08T10:21:53.984Z,1.53
2018-07-08T10:24:22.372Z,1.80
2018-07-08T10:27:00.681Z,1.90
2018-07-08T10:29:29.423Z,1.63
2018-07-08T10:32:00.814Z,1.70
2018-07-08T10:34:29.540Z,1.93
2018-07-08T10:36:57.859Z,2.97
2018-07-08T10:39:26.399Z,3.90
2018-07-08T10:41:54.912Z,2.87
2018-07-08T10:44:23.303Z,1.93
2018-07-08T10:46:51.656Z,1.97
2018-07-08T10:49:19.778Z,2.00
2018-07-08T10:51:48.158Z,1.60
2018-07-08T10:54:16.513Z,2.17
2018-07-08T10:56:44.906Z,1.67
2018-07-08T10:59:13.287Z,1.90
2018-07-08T11:01:41.703Z,1.60
2018-07-08T11:04:10.144Z,1.63
2018-07-08T11:06:38.540Z,2.10
2018-07-08T11:09:07.165Z,1.60
2018-07-08T11:11:35.663Z,1.70
2018-07-08T11:14:04.079Z,1.60
2018-07-08T11:16:32.486Z,1.77
2018-07-08T11:19:00.842Z,1.50
2018-07-08T11:21:29.343Z,1.50
2018-07-08T11:23:57.679Z,1.80
2018-07-08T11:26:27.702Z,1.67
2018-07-08T11:28:56.071Z,1.77
2018-07-08T11:31:24.439Z,1.80
2018-07-08T11:33:52.987Z,2.20
2018-07-08T11:36:21.386Z,2.03
2018-07-08T11:38:49.725Z,1.97
2018-07-08T11:41:18.710Z,2.20
2018-07-08T11:43:47.063Z,1.80
2018-07-08T11:46:17.411Z,1.80
2018-07-08T11:48:46.251Z,1.50
2018-07-08T11:51:14.858Z,1.83
2018-07-08T11:53:43.572Z,1.60
2018-07-08T11:56:19.576Z,1.97
2018-07-08T11:58:53.436Z,1.80
2018-07-08T12:01:30.886Z,1.60
2018-07-08T12:04:08.189Z,1.40
2018-07-08T12:12:44.611Z,1.43
2018-07-08T12:15:13.951Z,1.40
2018-07-08T12:17:42.331Z,1.27
2018-07-08T12:20:10.631Z,1.27
2018-07-08T12:22:39.006Z,1.23
2018-07-08T12:25:07.580Z,2.07
2018-07-08T12:27:36.347Z,1.33
2018-07-08T12:30:04.639Z,1.43
2018-07-08T12:32:33.075Z,1.70
2018-07-08T12:35:01.455Z,1.57
2018-07-08T12:37:29.763Z,1.60
2018-07-08T12:39:58.128Z,1.30
2018-07-08T12:42:26.419Z,1.00
2018-07-08T12:44:54.778Z,1.10
2018-07-08T12:47:23.103Z,1.40
2018-07-08T12:49:51.482Z,1.10
2018-07-08T12:52:19.998Z,1.50
2018-07-08T12:54:49.141Z,1.20
2018-07-08T12:57:17.561Z,1.20
2018-07-08T12:59:45.983Z,1.00
2018-07-08T13:02:14.394Z,1.10
2018-07-08T13:04:42.861Z,1.30
2018-07-08T13:07:11.309Z,1.20
2018-07-08T13:09:41.057Z,1.20
2018-07-08T13:12:09.456Z,1.40
2018-07-08T13:14:38.150Z,1.20
2018-07-08T13:17:06.554Z,1.20
2018-07-08T13:19:36.666Z,1.10
2018-07-08T13:22:05.133Z,1.10
2018-07-08T13:24:33.521Z,1.10
2018-07-08T13:27:02.176Z,1.33
2018-07-08T13:29:30.522Z,1.43
2018-07-08T13:31:58.924Z,2.00
2018-07-08T13:34:27.371Z,3.40
2018-07-08T13:36:55.749Z,4.90
2018-07-08T13:39:55.389Z,2.70
2018-07-08T13:42:23.915Z,1.93
2018-07-08T13:44:52.388Z,1.60
2018-07-08T13:47:20.860Z,1.33
2018-07-08T13:49:49.488Z,1.30
2018-07-08T13:52:18.028Z,1.23
2018-07-08T13:54:57.545Z,1.23
2018-07-08T13:57:26.151Z,1.30
2018-07-08T13:59:55.286Z,1.30
2018-07-08T14:02:23.750Z,1.50
2018-07-08T14:04:51.978Z,1.20
2018-07-08T14:07:20.458Z,1.30
2018-07-08T14:09:55.290Z,1.60
2018-07-08T14:12:23.707Z,2.17
2018-07-08T14:14:52.274Z,2.50
2018-07-08T14:17:20.699Z,2.57
2018-07-08T14:19:49.216Z,2.73
2018-07-08T14:22:17.923Z,1.63
2018-07-08T14:25:02.101Z,1.93
2018-07-08T14:27:30.727Z,2.27
2018-07-08T14:29:59.239Z,1.93
2018-07-08T14:32:27.860Z,1.70
2018-07-08T14:34:56.531Z,2.23
2018-07-08T14:37:26.846Z,2.40
2018-07-08T14:40:03.704Z,3.47
2018-07-08T14:42:33.020Z,2.60
2018-07-08T14:45:01.576Z,2.20
2018-07-08T14:47:30.099Z,1.80
2018-07-08T14:49:58.993Z,2.20
2018-07-08T14:52:28.232Z,2.10
2018-07-08T14:54:56.398Z,1.80
2018-07-08T14:57:24.537Z,1.53
2018-07-08T14:59:54.452Z,2.07
2018-07-08T15:02:22.576Z,1.30
2018-07-08T15:04:50.787Z,1.40
2018-07-08T15:07:19.166Z,1.60
2018-07-08T15:09:47.431Z,1.30
2018-07-08T15:12:15.561Z,1.27
2018-07-08T15:14:43.823Z,1.30
2018-07-08T15:17:11.979Z,1.50
2018-07-08T15:19:40.070Z,1.60
2018-07-08T15:22:08.230Z,1.40
2018-07-08T15:24:36.708Z,1.20
2018-07-08T15:27:04.844Z,2.70
2018-07-08T15:29:33.047Z,9.00
2018-07-08T15:32:01.165Z,1.70
2018-07-08T15:37:20.552Z,1.43
2018-07-08T15:39:51.770Z,1.70
2018-07-08T15:42:25.881Z,2.10
2018-07-08T15:44:58.151Z,1.83
2018-07-08T15:47:26.495Z,1.40
2018-07-08T15:49:54.865Z,1.33
2018-07-08T15:52:23.335Z,1.13
2018-07-08T15:54:51.786Z,1.30
2018-07-08T15:57:20.175Z,1.63
2018-07-08T15:59:48.591Z,1.33
2018-07-08T16:02:17.084Z,1.30
2018-07-08T16:04:45.551Z,1.30
2018-07-08T16:07:14.199Z,1.53
2018-07-08T16:09:42.663Z,1.43
2018-07-08T16:12:10.963Z,1.40
2018-07-08T16:14:39.306Z,1.40
2018-07-08T16:17:07.613Z,1.70
2018-07-08T16:19:35.952Z,1.30
2018-07-08T16:22:06.983Z,1.87
2018-07-08T16:24:35.677Z,1.20
2018-07-08T16:27:04.252Z,1.10
2018-07-08T16:29:32.658Z,1.40
2018-07-08T16:32:01.038Z,1.30
2018-07-08T16:34:29.381Z,1.30
2018-07-08T16:36:57.781Z,1.23
2018-07-08T16:39:26.194Z,1.23
2018-07-08T16:41:54.341Z,2.43
2018-07-08T16:44:22.685Z,3.37
2018-07-08T16:46:51.025Z,4.73
2018-07-08T16:49:19.369Z,1.80
2018-07-08T16:51:47.695Z,8.47
2018-07-08T16:54:17.031Z,3.23
2018-07-08T16:56:45.444Z,5.30
2018-07-08T16:59:13.791Z,5.80
2018-07-08T17:01:42.154Z,14.30
2018-07-08T17:04:10.650Z,7.27
2018-07-08T17:06:39.157Z,4.07
2018-07-08T17:09:08.687Z,2.17
2018-07-08T17:11:36.844Z,6.00
2018-07-08T17:14:05.314Z,3.90
2018-07-08T17:16:34.012Z,5.67
2018-07-08T17:19:02.344Z,4.27
2018-07-08T17:21:30.670Z,2.97
2018-07-08T17:23:59.030Z,3.97
2018-07-08T17:26:27.391Z,2.80
2018-07-08T17:28:55.735Z,4.23
2018-07-08T17:31:24.427Z,6.43
2018-07-08T17:33:52.807Z,13.53
2018-07-08T17:36:21.182Z,3.20
2018-07-08T17:38:49.569Z,4.10
2018-07-08T17:41:17.896Z,6.60
2018-07-08T17:43:45.988Z,7.10
2018-07-08T17:46:14.331Z,3.90
2018-07-08T17:48:42.678Z,8.37
2018-07-08T17:51:11.033Z,28.37
2018-07-08T17:53:39.377Z,17.17
2018-07-08T17:56:07.747Z,15.60
2018-07-08T17:58:36.251Z,13.37
2018-07-08T18:01:04.617Z,10.80
2018-07-08T18:03:33.085Z,12.53
2018-07-08T18:06:01.652Z,11.07
2018-07-08T18:08:30.143Z,8.33
2018-07-08T18:10:58.508Z,4.63
2018-07-08T18:13:27.646Z,3.67
2018-07-08T18:15:55.815Z,6.77
2018-07-08T18:18:23.919Z,6.70
2018-07-08T18:20:52.487Z,9.70
2018-07-08T18:23:20.969Z,14.57
2018-07-08T18:25:49.550Z,19.73
2018-07-08T18:28:18.094Z,14.07
2018-07-08T18:30:46.431Z,13.40
2018-07-08T18:33:14.798Z,8.30
2018-07-08T18:35:43.137Z,10.67
2018-07-08T18:38:11.546Z,15.23
2018-07-08T18:40:39.878Z,12.97
2018-07-08T18:43:10.685Z,13.57
2018-07-08T18:45:39.131Z,13.13
2018-07-08T18:48:07.544Z,9.60
2018-07-08T18:50:35.897Z,8.63
2018-07-08T18:53:04.302Z,8.43
2018-07-08T18:55:32.787Z,6.53
2018-07-08T18:58:01.786Z,7.00
2018-07-08T19:00:30.056Z,2.57
2018-07-08T19:02:58.474Z,4.57
2018-07-08T19:05:26.886Z,3.57
2018-07-08T19:07:55.268Z,4.20
2018-07-08T19:10:23.700Z,3.47
2018-07-08T19:12:52.112Z,2.90
2018-07-08T19:15:20.469Z,2.70
2018-07-08T19:17:49.049Z,2.70
2018-07-08T19:20:17.096Z,2.53
2018-07-08T19:22:45.674Z,2.40
2018-07-08T19:25:14.271Z,2.50
2018-07-08T19:27:43.026Z,2.50
2018-07-08T19:30:11.521Z,4.00
2018-07-08T19:32:40.161Z,2.67
2018-07-08T19:35:09.062Z,2.83
2018-07-08T19:37:37.548Z,3.10
2018-07-08T19:40:06.243Z,4.10
2018-07-08T19:42:34.693Z,5.47
2018-07-08T19:45:04.109Z,3.50
2018-07-08T19:47:32.562Z,3.17
2018-07-08T19:50:00.833Z,3.37
2018-07-08T19:52:29.166Z,2.50
2018-07-08T19:54:57.429Z,2.73
2018-07-08T19:57:26.292Z,2.40
2018-07-08T19:59:54.611Z,2.70
2018-07-08T20:02:22.976Z,2.57
2018-07-08T20:04:52.767Z,3.57
2018-07-08T20:07:21.202Z,3.47
2018-07-08T20:09:49.538Z,3.47
2018-07-08T20:12:19.031Z,3.83
2018-07-08T20:14:47.514Z,2.90
2018-07-08T20:17:20.437Z,2.90
2018-07-08T20:19:48.799Z,2.87
2018-07-08T20:22:17.164Z,2.80
2018-07-08T20:24:46.651Z,2.67
2018-07-08T20:27:16.790Z,2.67
2018-07-08T20:29:45.490Z,2.80
2018-07-08T20:32:14.974Z,2.83
2018-07-08T20:34:43.302Z,2.47
2018-07-08T20:37:11.773Z,2.20
2018-07-08T20:39:40.147Z,2.60
2018-07-08T20:42:08.596Z,12.00
2018-07-08T20:44:37.108Z,7.63
2018-07-08T20:47:05.918Z,5.93
2018-07-08T20:49:34.603Z,2.87
2018-07-08T20:52:03.016Z,3.30
2018-07-08T20:54:31.902Z,2.33
2018-07-08T20:57:00.806Z,2.97
2018-07-08T20:59:29.150Z,4.40
2018-07-08T21:01:57.606Z,2.87
2018-07-08T21:04:25.969Z,3.70
2018-07-08T21:06:54.384Z,3.60
2018-07-08T21:09:22.760Z,3.27
2018-07-08T21:11:51.310Z,3.43
2018-07-08T21:14:19.711Z,3.30
2018-07-08T21:16:48.058Z,3.10
2018-07-08T21:19:16.434Z,3.87
2018-07-08T21:21:44.820Z,3.13
2018-07-08T21:24:13.291Z,3.27
2018-07-08T21:26:41.679Z,3.03
2018-07-08T21:29:10.028Z,3.63
2018-07-08T21:31:38.759Z,3.73
2018-07-08T21:34:07.183Z,4.60
2018-07-08T21:36:35.574Z,4.33
2018-07-08T21:39:05.567Z,3.97
2018-07-08T21:41:33.958Z,4.03
2018-07-08T21:44:02.407Z,3.40
2018-07-08T21:46:30.806Z,3.73
2018-07-08T21:48:59.217Z,3.70
2018-07-08T21:51:27.595Z,3.87
2018-07-08T21:53:56.109Z,3.90
2018-07-08T21:56:24.566Z,3.60
2018-07-08T21:58:52.984Z,3.90
2018-07-08T22:01:22.636Z,4.30
2018-07-08T22:03:51.728Z,3.87
2018-07-08T22:06:20.752Z,4.00
2018-07-08T22:08:49.164Z,3.93
2018-07-08T22:11:17.588Z,4.43
2018-07-08T22:13:45.946Z,4.10
2018-07-08T22:16:14.347Z,3.87
2018-07-08T22:18:42.822Z,3.97
2018-07-08T22:21:11.263Z,4.10
2018-07-08T22:23:39.675Z,3.90
2018-07-08T22:26:08.062Z,4.40
2018-07-08T22:28:36.440Z,4.13
2018-07-08T22:31:05.395Z,4.57
2018-07-08T22:33:33.710Z,4.77
2018-07-08T22:36:02.094Z,4.23
2018-07-08T22:38:30.418Z,4.93
2018-07-08T22:40:58.886Z,4.50
2018-07-08T22:43:27.276Z,5.17
2018-07-08T22:45:55.737Z,4.37
2018-07-08T22:48:24.099Z,4.27
2018-07-08T22:50:52.458Z,4.03
2018-07-08T22:53:20.856Z,5.57
2018-07-08T22:55:49.217Z,5.87
2018-07-08T22:58:17.592Z,5.43
2018-07-08T23:00:57.335Z,5.20
2018-07-08T23:03:52.524Z,5.77
2018-07-08T23:06:20.963Z,6.73
2018-07-08T23:08:50.128Z,6.43
2018-07-08T23:11:18.999Z,7.00
2018-07-08T23:13:48.368Z,5.30
2018-07-08T23:16:16.901Z,5.83
2018-07-08T23:18:45.383Z,4.90
2018-07-08T23:21:13.855Z,5.50
2018-07-08T23:23:42.700Z,5.10
2018-07-08T23:26:11.107Z,4.87
2018-07-08T23:28:41.289Z,4.67
2018-07-08T23:31:10.138Z,5.27
2018-07-08T23:33:38.542Z,5.47
2018-07-08T23:36:07.661Z,5.10
2018-07-08T23:38:36.103Z,4.77
2018-07-08T23:41:05.469Z,4.87
2018-07-08T23:43:33.872Z,5.00
2018-07-08T23:46:02.980Z,5.30
2018-07-08T23:48:31.793Z,5.80
2018-07-08T23:51:00.153Z,5.20
2018-07-08T23:53:28.627Z,6.63
2018-07-08T23:55:56.970Z,6.43
